Time;durP1;ratioP1;P1;durP2;ratioP2;P2;SDS_P1;SDS_P2;PMS_P1;PMS_P2;Temp;Humidity;BMP_temperature;BMP_pressure;BME280_temperature;BME280_humidity;BME280_pressure;Samples;Min_cycle;Max_cycle;Signal;HPM_P1;HPM_P2
2021/08/23 00:07:43;;;;;;;;;;;;;;;21.20;80.08;99488.13;5151869;27;19924;-73
2021/08/23 00:14:07;;;;;;;;;;;;;;;21.07;80.23;99510.38;5149305;27;19931;-74
2021/08/23 00:20:42;;;;;;;;;;;;;;;21.11;80.27;99500.72;5141903;27;19930;-75
2021/08/23 00:41:32;;;;;;;;;;;;;;;21.00;80.21;99539.22;5131931;28;19930;-73
2021/08/23 00:44:49;;;;;;;;;;;;;;;20.99;80.26;99548.81;5152180;27;20380;-73
2021/08/23 00:47:58;;;;;;;;;;;;;;;20.97;80.62;99563.56;5136102;27;19923;-74
2021/08/23 01:05:05;;;;;;;;;;;;;;;20.94;81.31;99571.50;5143818;27;19984;-73
2021/08/23 01:08:26;;;;;;;;;;;;;;;20.97;81.27;99566.16;5120812;27;19923;-73
2021/08/23 01:15:19;;;;;;;;;;;;;;;20.80;81.55;99568.69;5125285;27;19923;-74
2021/08/23 01:18:06;;;;;;;;;;;;;;;20.79;81.75;99585.16;5116264;27;19942;-74
2021/08/23 01:21:03;;;;;;;;;;;;;;;20.76;81.97;99593.06;5124437;27;19931;-76
2021/08/23 01:23:59;;;;;;;;;;;;;;;20.78;82.07;99587.81;5129060;27;19923;-74
2021/08/23 01:30:31;;;;;;;;;;;;;;;20.67;82.63;99577.91;5132345;27;20025;-74
2021/08/23 01:40:16;;;;;;;;;;;;;;;20.40;83.73;99594.63;5132627;27;20032;-74
2021/08/23 01:43:34;;;;;;;;;;;;;;;20.33;83.98;99588.03;5133316;27;20018;-75
2021/08/23 01:50:17;;;;;;;;;;;;;;;20.25;84.57;99598.69;5132652;27;20006;-74
2021/08/23 01:53:11;;;;;;;;;;;;;;;20.21;84.85;99594.53;5136351;27;19924;-75
2021/08/23 01:59:56;;;;;;;;;;;;;;;20.30;84.97;99601.13;5135498;27;19931;-74
2021/08/23 02:10:02;;;;;;;;;;;;;;;20.15;85.14;99604.31;5134479;27;20284;-74
2021/08/23 02:13:08;;;;;;;;;;;;;;;20.14;85.28;99605.19;5115063;28;19977;-74
2021/08/23 02:16:39;;;;;;;;;;;;;;;20.10;85.01;99603.66;5135441;27;19980;-75
2021/08/23 02:19:42;;;;;;;;;;;;;;;20.09;85.12;99605.41;5128468;27;19937;-74
2021/08/23 02:26:15;;;;;;;;;;;;;;;20.10;85.08;99601.91;5115920;27;19924;-75
2021/08/23 02:42:53;;;;;;;;;;;;;;;19.93;85.77;99600.00;5151396;27;20380;-73
2021/08/23 02:53:10;;;;;;;;;;;;;;;19.89;86.44;99590.66;5150824;27;19923;-72
2021/08/23 03:03:05;;;;;;;;;;;;;;;19.88;86.52;99622.66;5132833;27;19920;-73
2021/08/23 03:09:44;;;;;;;;;;;;;;;19.67;86.35;99661.50;5132883;27;19991;-75
2021/08/23 03:12:53;;;;;;;;;;;;;;;19.59;86.30;99659.19;5146802;27;19924;-74
2021/08/23 03:18:57;;;;;;;;;;;;;;;19.54;86.27;99642.97;5129938;27;19972;-74
2021/08/23 03:21:26;;;;;;;;;;;;;;;19.54;86.19;99642.97;5128444;27;19930;-75
2021/08/23 03:23:54;;;;;;;;;;;;;;;19.55;86.18;99629.16;5144539;27;20071;-75
2021/08/23 03:26:36;;;;;;;;;;;;;;;19.53;86.30;99630.09;5153091;27;19981;-74
2021/08/23 03:29:06;;;;;;;;;;;;;;;19.50;86.36;99636.25;5151565;27;19930;-75
2021/08/23 03:31:35;;;;;;;;;;;;;;;19.49;86.46;99639.72;5139141;27;19928;-76
2021/08/23 03:34:11;;;;;;;;;;;;;;;19.48;86.47;99643.22;5145298;27;19927;-75
2021/08/23 03:36:45;;;;;;;;;;;;;;;19.50;86.54;99641.41;5151711;27;19923;-74
2021/08/23 03:39:17;;;;;;;;;;;;;;;19.50;86.59;99651.78;5151618;27;19927;-74
2021/08/23 03:41:46;;;;;;;;;;;;;;;19.47;86.50;99656.22;5144969;27;19976;-75
2021/08/23 03:44:15;;;;;;;;;;;;;;;19.47;86.32;99653.63;5137245;27;19927;-74
2021/08/23 03:46:52;;;;;;;;;;;;;;;19.48;86.38;99669.13;5132307;27;20272;-74
2021/08/23 03:49:22;;;;;;;;;;;;;;;19.43;86.13;99671.03;5140439;27;19994;-74
2021/08/23 03:51:51;;;;;;;;;;;;;;;19.39;85.94;99680.63;5128209;27;19924;-75
2021/08/23 03:54:19;;;;;;;;;;;;;;;19.33;85.84;99691.19;5132330;27;19927;-74
2021/08/23 03:56:51;;;;;;;;;;;;;;;19.15;85.34;99698.75;5149850;27;20014;-75
2021/08/23 03:59:20;;;;;;;;;;;;;;;19.01;85.49;99708.72;5148143;27;19928;-74
2021/08/23 04:01:49;;;;;;;;;;;;;;;18.84;85.65;99716.22;5140340;27;19930;-75
2021/08/23 04:04:19;;;;;;;;;;;;;;;18.85;85.63;99717.91;5130775;27;19923;-74
2021/08/23 04:06:56;;;;;;;;;;;;;;;18.78;85.77;99721.59;5130506;27;20015;-76
2021/08/23 04:09:26;;;;;;;;;;;;;;;18.71;86.04;99715.81;5133440;27;19928;-75
2021/08/23 04:11:55;;;;;;;;;;;;;;;18.66;86.03;99707.34;5128301;27;19924;-75
2021/08/23 04:14:27;;;;;;;;;;;;;;;18.57;86.36;99708.47;5116332;27;19963;-74
2021/08/23 04:16:56;;;;;;;;;;;;;;;18.63;86.61;99713.47;5116048;27;19946;-74
2021/08/23 04:19:32;;;;;;;;;;;;;;;18.63;86.69;99708.28;5129573;27;19923;-74
2021/08/23 04:22:06;;;;;;;;;;;;;;;18.70;86.94;99714.94;5124843;27;19923;-74
2021/08/23 04:24:38;;;;;;;;;;;;;;;18.73;86.97;99714.00;5120368;27;20018;-75
2021/08/23 04:29:54;;;;;;;;;;;;;;;18.85;87.08;99707.56;5084430;28;20385;-75
2021/08/23 04:32:25;;;;;;;;;;;;;;;18.92;87.05;99683.19;5076176;28;20449;-75
2021/08/23 04:34:56;;;;;;;;;;;;;;;18.98;87.01;99680.41;5073984;28;19936;-74
2021/08/23 04:37:26;;;;;;;;;;;;;;;18.96;86.64;99687.34;5073923;28;19932;-75
2021/08/23 04:39:56;;;;;;;;;;;;;;;18.91;86.78;99707.38;5073157;28;19924;-76
2021/08/23 04:42:25;;;;;;;;;;;;;;;18.82;86.64;99718.00;5073628;28;19929;-76
2021/08/23 04:44:54;;;;;;;;;;;;;;;18.69;86.62;99718.41;5087518;28;20019;-76
2021/08/23 04:47:22;;;;;;;;;;;;;;;18.60;86.34;99729.06;5090600;28;20633;-76
2021/08/23 04:49:51;;;;;;;;;;;;;;;18.63;86.51;99718.63;5077470;28;20480;-76
2021/08/23 04:52:20;;;;;;;;;;;;;;;18.73;86.42;99717.44;5076960;28;20383;-76
2021/08/23 04:54:50;;;;;;;;;;;;;;;18.74;86.41;99720.84;5058962;28;20289;-76
2021/08/23 04:57:21;;;;;;;;;;;;;;;18.82;86.47;99723.19;5056532;28;20332;-76
2021/08/23 04:59:50;;;;;;;;;;;;;;;18.83;86.54;99717.97;5080162;28;19924;-76
2021/08/23 05:02:22;;;;;;;;;;;;;;;18.85;86.58;99707.56;5083167;28;20400;-77
2021/08/23 05:04:51;;;;;;;;;;;;;;;18.84;86.49;99711.91;5083063;28;20301;-76
2021/08/23 05:07:20;;;;;;;;;;;;;;;18.83;86.59;99710.22;5105224;27;19928;-76
2021/08/23 05:09:50;;;;;;;;;;;;;;;18.86;86.85;99712.69;5123850;27;20296;-76
2021/08/23 05:12:19;;;;;;;;;;;;;;;18.85;86.43;99710.16;5125536;27;19997;-76
2021/08/23 05:14:48;;;;;;;;;;;;;;;18.87;86.52;99708.38;5121454;27;19929;-76
2021/08/23 05:17:16;;;;;;;;;;;;;;;18.94;86.56;99704.66;5132759;27;20400;-76
2021/08/23 05:19:46;;;;;;;;;;;;;;;19.01;86.58;99703.56;5117212;27;20396;-78
2021/08/23 05:22:14;;;;;;;;;;;;;;;19.04;86.45;99703.47;5122668;27;19927;-78
2021/08/23 05:24:43;;;;;;;;;;;;;;;19.05;86.39;99710.34;5126240;27;19938;-78
2021/08/23 05:27:15;;;;;;;;;;;;;;;18.84;85.97;99709.31;5115416;27;19963;-79
2021/08/23 05:29:44;;;;;;;;;;;;;;;18.67;85.96;99715.03;5117291;27;19927;-78
2021/08/23 05:32:16;;;;;;;;;;;;;;;18.65;86.39;99719.44;5121461;27;20328;-78
2021/08/23 05:34:46;;;;;;;;;;;;;;;18.71;86.57;99716.63;5118230;27;19934;-78
2021/08/23 05:37:15;;;;;;;;;;;;;;;18.86;86.77;99720.44;5126429;27;19959;-80
2021/08/23 05:39:44;;;;;;;;;;;;;;;18.86;86.68;99714.44;5123188;27;19930;-77
2021/08/23 05:42:14;;;;;;;;;;;;;;;18.84;86.72;99713.63;5136433;27;19923;-76
2021/08/23 05:44:44;;;;;;;;;;;;;;;18.80;86.71;99712.91;5118487;27;19924;-76
2021/08/23 05:47:13;;;;;;;;;;;;;;;18.77;86.98;99714.72;5114765;28;20015;-77
2021/08/23 05:49:41;;;;;;;;;;;;;;;18.79;87.07;99707.78;5115578;27;19924;-77
2021/08/23 05:52:10;;;;;;;;;;;;;;;18.83;87.36;99715.41;5119600;27;20376;-76
2021/08/23 05:54:40;;;;;;;;;;;;;;;18.91;87.23;99728.06;5115984;27;19923;-78
2021/08/23 05:57:10;;;;;;;;;;;;;;;18.90;87.19;99716.03;5114279;27;19972;-76
2021/08/23 05:59:39;;;;;;;;;;;;;;;18.95;87.07;99712.41;5121867;27;19932;-76
2021/08/23 06:02:10;;;;;;;;;;;;;;;19.04;86.77;99712.06;5113993;27;19924;-78
2021/08/23 06:04:53;;;;;;;;;;;;;;;19.06;86.34;99701.66;5115021;27;19994;-76
2021/08/23 06:07:22;;;;;;;;;;;;;;;19.04;86.11;99714.66;5114315;27;19928;-77
2021/08/23 06:09:51;;;;;;;;;;;;;;;18.97;86.38;99712.34;5125690;27;19986;-75
2021/08/23 06:12:20;;;;;;;;;;;;;;;18.89;86.48;99709.16;5130572;27;20384;-75
2021/08/23 06:14:49;;;;;;;;;;;;;;;18.88;86.42;99713.50;5110496;28;20292;-76
2021/08/23 06:17:20;;;;;;;;;;;;;;;18.87;86.52;99718.72;5122144;27;19935;-75
2021/08/23 06:19:49;;;;;;;;;;;;;;;18.81;86.92;99726.69;5130830;27;19923;-74
2021/08/23 06:22:17;;;;;;;;;;;;;;;18.73;86.70;99739.88;5123648;27;19927;-74
2021/08/23 06:24:46;;;;;;;;;;;;;;;18.70;86.58;99739.97;5126053;27;20018;-73
2021/08/23 06:27:16;;;;;;;;;;;;;;;18.67;86.89;99740.91;5116479;27;19924;-73
2021/08/23 06:29:44;;;;;;;;;;;;;;;18.72;87.01;99738.16;5123643;27;19930;-75
2021/08/23 06:32:13;;;;;;;;;;;;;;;18.76;86.97;99733.75;5114580;28;19924;-74
2021/08/23 06:34:43;;;;;;;;;;;;;;;18.82;87.12;99731.78;5121486;27;19930;-74
2021/08/23 06:37:12;;;;;;;;;;;;;;;18.92;87.32;99735.78;5116603;27;20319;-74
2021/08/23 06:39:40;;;;;;;;;;;;;;;18.96;87.08;99741.66;5114931;28;20370;-74
2021/08/23 06:42:09;;;;;;;;;;;;;;;18.86;86.95;99740.31;5114369;28;19927;-74
2021/08/23 06:44:39;;;;;;;;;;;;;;;18.83;87.07;99743.00;5114440;27;19927;-75
2021/08/23 06:47:09;;;;;;;;;;;;;;;18.72;87.07;99749.34;5123681;27;19930;-74
2021/08/23 06:49:37;;;;;;;;;;;;;;;18.70;87.24;99745.13;5117688;27;19924;-75
2021/08/23 06:52:08;;;;;;;;;;;;;;;18.66;87.37;99748.72;5107873;28;19934;-73
2021/08/23 06:54:37;;;;;;;;;;;;;;;18.70;87.57;99743.41;5115523;28;20327;-74
2021/08/23 06:57:06;;;;;;;;;;;;;;;18.71;87.79;99736.50;5117687;27;19924;-75
2021/08/23 06:59:38;;;;;;;;;;;;;;;18.79;87.88;99734.47;5115394;28;20385;-74
2021/08/23 07:02:07;;;;;;;;;;;;;;;18.87;87.61;99731.63;5123268;28;19928;-73
2021/08/23 07:04:36;;;;;;;;;;;;;;;18.89;87.42;99737.59;5134759;28;19929;-73
2021/08/23 07:07:05;;;;;;;;;;;;;;;18.91;87.63;99741.00;5134786;28;19932;-73
2021/08/23 07:09:35;;;;;;;;;;;;;;;18.91;87.50;99734.06;5134776;27;19953;-74
2021/08/23 07:12:04;;;;;;;;;;;;;;;18.96;87.38;99737.34;5135188;27;19930;-74
2021/08/23 07:14:32;;;;;;;;;;;;;;;19.08;87.50;99734.34;5134863;28;19929;-74
2021/08/23 07:17:01;;;;;;;;;;;;;;;19.19;87.58;99739.16;5134812;27;20013;-74
2021/08/23 07:19:30;;;;;;;;;;;;;;;19.24;87.56;99732.91;5134788;28;20026;-74
2021/08/23 07:22:19;;;;;;;;;;;;;;;19.40;87.47;99738.44;5133329;28;19923;-74
2021/08/23 07:24:50;;;;;;;;;;;;;;;19.46;87.01;99733.03;5133356;28;19923;-74
2021/08/23 07:27:20;;;;;;;;;;;;;;;19.54;87.06;99723.25;5134602;28;20303;-74
2021/08/23 07:29:48;;;;;;;;;;;;;;;19.64;87.03;99716.84;5134642;27;20460;-74
2021/08/23 07:32:18;;;;;;;;;;;;;;;19.59;86.72;99713.56;5128668;28;19923;-74
2021/08/23 07:34:46;;;;;;;;;;;;;;;19.59;86.54;99715.31;5120718;28;19924;-73
2021/08/23 07:37:17;;;;;;;;;;;;;;;19.77;86.54;99712.88;5112351;28;19966;-73
2021/08/23 07:39:46;;;;;;;;;;;;;;;19.84;86.27;99714.31;5113581;28;19930;-74
2021/08/23 07:42:16;;;;;;;;;;;;;;;19.75;85.78;99704.31;5122141;27;19980;-74
2021/08/23 07:44:44;;;;;;;;;;;;;;;19.68;85.63;99707.19;5112720;28;19931;-74
2021/08/23 07:47:13;;;;;;;;;;;;;;;19.66;85.48;99702.09;5114251;28;20255;-74
2021/08/23 07:49:42;;;;;;;;;;;;;;;19.62;85.63;99697.94;5117808;28;19950;-74
2021/08/23 07:52:10;;;;;;;;;;;;;;;19.58;85.57;99701.50;5117720;28;19927;-74
2021/08/23 07:54:39;;;;;;;;;;;;;;;19.53;85.41;99703.41;5118001;28;20026;-74
2021/08/23 07:57:08;;;;;;;;;;;;;;;19.55;85.46;99703.38;5116241;28;20014;-74
2021/08/23 07:59:39;;;;;;;;;;;;;;;19.53;85.19;99711.19;5116471;28;19935;-74
2021/08/23 08:02:08;;;;;;;;;;;;;;;19.55;85.10;99717.19;5117273;28;19923;-74
2021/08/23 08:04:39;;;;;;;;;;;;;;;19.57;85.02;99715.38;5117443;28;19930;-74
2021/08/23 08:07:07;;;;;;;;;;;;;;;19.67;84.54;99721.91;5133532;27;20026;-73
2021/08/23 08:09:36;;;;;;;;;;;;;;;19.76;85.01;99721.56;5117431;28;19958;-74
2021/08/23 08:12:06;;;;;;;;;;;;;;;19.83;84.95;99716.97;5117206;28;19923;-73
2021/08/23 08:14:36;;;;;;;;;;;;;;;19.86;84.96;99717.72;5117371;27;19931;-74
2021/08/23 08:17:06;;;;;;;;;;;;;;;19.96;84.93;99719.03;5117232;28;19924;-74
2021/08/23 08:19:36;;;;;;;;;;;;;;;20.06;84.96;99709.16;5117243;28;19931;-73
2021/08/23 08:22:06;;;;;;;;;;;;;;;20.11;84.84;99711.63;5117405;28;20476;-73
2021/08/23 08:24:37;;;;;;;;;;;;;;;20.18;84.69;99710.47;5117099;27;19930;-73
2021/08/23 08:27:06;;;;;;;;;;;;;;;20.24;84.55;99718.00;5117306;28;19992;-74
2021/08/23 08:29:34;;;;;;;;;;;;;;;20.15;84.05;99707.97;5117031;28;19931;-73
2021/08/23 08:32:04;;;;;;;;;;;;;;;20.14;84.23;99701.09;5117109;28;19924;-73
2021/08/23 08:34:34;;;;;;;;;;;;;;;20.37;83.99;99707.09;5116801;28;19930;-73
2021/08/23 08:37:04;;;;;;;;;;;;;;;20.53;83.79;99704.75;5116728;28;19924;-73
2021/08/23 08:39:32;;;;;;;;;;;;;;;20.62;83.41;99714.72;5116952;28;19924;-73
2021/08/23 08:42:01;;;;;;;;;;;;;;;20.64;82.80;99712.91;5115513;28;20014;-73
2021/08/23 08:44:30;;;;;;;;;;;;;;;20.67;82.64;99707.59;5116752;28;19923;-73
2021/08/23 08:46:59;;;;;;;;;;;;;;;20.75;82.50;99710.75;5117019;28;20355;-73
2021/08/23 08:49:30;;;;;;;;;;;;;;;20.83;82.23;99703.47;5116703;28;19935;-73
2021/08/23 08:52:00;;;;;;;;;;;;;;;20.95;82.39;99712.47;5116739;28;19988;-74
2021/08/23 08:54:30;;;;;;;;;;;;;;;20.96;81.82;99704.63;5116620;28;19924;-73
2021/08/23 08:57:00;;;;;;;;;;;;;;;21.13;81.28;99701.34;5117275;28;20011;-73
2021/08/23 08:59:30;;;;;;;;;;;;;;;21.35;80.53;99697.72;5116392;28;20014;-73
2021/08/23 09:01:59;;;;;;;;;;;;;;;21.58;79.96;99698.47;5116387;28;19924;-73
2021/08/23 09:04:29;;;;;;;;;;;;;;;21.68;79.37;99699.75;5116709;28;19932;-73
2021/08/23 09:07:03;;;;;;;;;;;;;;;21.62;78.42;99698.25;5116461;28;20421;-73
2021/08/23 09:09:31;;;;;;;;;;;;;;;21.65;78.19;99699.88;5116526;28;19947;-73
2021/08/23 09:12:01;;;;;;;;;;;;;;;21.74;77.90;99704.66;5116305;28;19953;-73
2021/08/23 09:14:31;;;;;;;;;;;;;;;21.82;77.24;99703.38;5116671;28;20266;-73
2021/08/23 09:17:05;;;;;;;;;;;;;;;22.42;76.39;99710.09;5116146;27;19924;-73
2021/08/23 09:19:36;;;;;;;;;;;;;;;22.67;75.70;99705.38;5116126;28;19923;-72
2021/08/23 09:22:07;;;;;;;;;;;;;;;22.58;75.77;99700.59;5116574;28;19923;-73
2021/08/23 09:24:37;;;;;;;;;;;;;;;22.45;75.43;99703.88;5116301;28;19930;-72
2021/08/23 09:27:06;;;;;;;;;;;;;;;22.32;75.67;99710.59;5115988;28;19923;-73
2021/08/23 09:29:45;;;;;;;;;;;;;;;22.42;75.69;99710.09;5116128;28;19924;-73
2021/08/23 09:32:15;;;;;;;;;;;;;;;22.58;74.75;99705.81;5116321;28;20399;-72
2021/08/23 09:34:44;;;;;;;;;;;;;;;22.74;73.92;99710.28;5115868;28;19947;-73
2021/08/23 09:37:18;;;;;;;;;;;;;;;22.99;73.71;99708.13;5116160;28;20567;-72
2021/08/23 09:39:47;;;;;;;;;;;;;;;23.05;72.96;99700.00;5115591;28;20416;-73
2021/08/23 09:42:20;;;;;;;;;;;;;;;22.99;72.42;99690.75;5115646;28;19924;-73
2021/08/23 09:44:49;;;;;;;;;;;;;;;22.82;73.08;99700.34;5115449;28;19931;-71
2021/08/23 09:47:18;;;;;;;;;;;;;;;22.74;72.75;99698.13;5115543;28;20377;-72
2021/08/23 09:49:47;;;;;;;;;;;;;;;22.67;72.34;99692.38;5115451;28;19962;-73
2021/08/23 09:52:28;;;;;;;;;;;;;;;22.72;71.83;99691.31;5115353;28;19923;-71
2021/08/23 09:55:01;;;;;;;;;;;;;;;22.68;71.29;99683.66;5115543;27;20038;-72
2021/08/23 09:57:30;;;;;;;;;;;;;;;22.77;70.69;99689.31;5115475;28;19923;-72
2021/08/23 09:59:59;;;;;;;;;;;;;;;22.95;71.24;99688.38;5115583;28;19977;-71
2021/08/23 10:02:28;;;;;;;;;;;;;;;23.17;71.83;99675.94;5115296;28;19923;-72
2021/08/23 10:04:58;;;;;;;;;;;;;;;23.62;71.08;99670.94;5115202;28;19959;-72
2021/08/23 10:07:28;;;;;;;;;;;;;;;23.89;68.99;99664.22;5115254;28;19924;-71
2021/08/23 10:10:00;;;;;;;;;;;;;;;24.18;68.20;99667.00;5114853;28;20010;-71
2021/08/23 10:12:30;;;;;;;;;;;;;;;24.12;67.43;99664.72;5114200;28;19923;-71
2021/08/23 10:14:59;;;;;;;;;;;;;;;24.20;67.95;99665.97;5115116;28;19967;-72
2021/08/23 10:17:31;;;;;;;;;;;;;;;24.40;68.38;99654.41;5114858;28;19989;-73
2021/08/23 10:19:59;;;;;;;;;;;;;;;24.39;66.80;99653.56;5115070;28;19967;-71
2021/08/23 10:22:30;;;;;;;;;;;;;;;24.17;67.32;99655.72;5115327;28;20444;-71
2021/08/23 10:24:58;;;;;;;;;;;;;;;24.61;66.42;99663.59;5114725;28;19930;-71
2021/08/23 10:27:27;;;;;;;;;;;;;;;24.83;65.94;99664.06;5114777;28;19931;-71
2021/08/23 10:29:57;;;;;;;;;;;;;;;25.02;64.67;99659.41;5115209;28;19931;-71
2021/08/23 10:32:34;;;;;;;;;;;;;;;25.49;62.90;99653.06;5114875;28;19930;-71
2021/08/23 10:35:13;;;;;;;;;;;;;;;25.63;62.61;99645.19;5114481;28;19928;-71
2021/08/23 10:37:45;;;;;;;;;;;;;;;25.37;63.11;99652.03;5114703;28;19967;-71
2021/08/23 10:40:14;;;;;;;;;;;;;;;24.77;63.31;99659.19;5114735;28;19924;-71
2021/08/23 10:42:46;;;;;;;;;;;;;;;24.20;63.55;99646.88;5114581;28;19966;-71
2021/08/23 10:45:16;;;;;;;;;;;;;;;23.82;64.60;99649.84;5114758;28;20383;-71
2021/08/23 10:47:46;;;;;;;;;;;;;;;23.60;65.46;99649.31;5114749;28;20308;-71
2021/08/23 10:50:21;;;;;;;;;;;;;;;23.48;65.57;99656.97;5114827;28;20357;-71
2021/08/23 10:52:51;;;;;;;;;;;;;;;23.24;65.88;99648.66;5114283;28;19951;-70
2021/08/23 10:55:21;;;;;;;;;;;;;;;23.00;65.67;99657.75;5114719;28;20026;-71
2021/08/23 10:57:50;;;;;;;;;;;;;;;22.73;66.87;99651.34;5114288;28;19924;-71
2021/08/23 11:00:19;;;;;;;;;;;;;;;22.56;67.81;99650.41;5114513;28;20326;-71
2021/08/23 11:02:48;;;;;;;;;;;;;;;23.01;66.91;99636.81;5114119;28;19924;-70
2021/08/23 11:05:21;;;;;;;;;;;;;;;24.00;66.19;99632.31;5129983;28;19946;-70
2021/08/23 11:08:08;;;;;;;;;;;;;;;24.67;63.28;99626.69;5114355;28;19985;-70
2021/08/23 11:10:39;;;;;;;;;;;;;;;25.17;61.33;99632.34;5114369;28;19924;-70
2021/08/23 11:13:11;;;;;;;;;;;;;;;25.53;60.60;99628.44;5114306;28;20373;-71
2021/08/23 11:15:40;;;;;;;;;;;;;;;25.75;59.44;99636.59;5114711;28;19927;-71
2021/08/23 11:18:10;;;;;;;;;;;;;;;25.49;58.75;99638.22;5114113;28;20396;-72
2021/08/23 11:20:41;;;;;;;;;;;;;;;25.08;57.59;99632.06;5114192;28;19973;-71
2021/08/23 11:23:14;;;;;;;;;;;;;;;25.13;58.29;99625.63;5116085;28;19992;-71
2021/08/23 11:25:46;;;;;;;;;;;;;;;25.07;57.65;99620.78;5118270;28;19931;-71
2021/08/23 11:28:15;;;;;;;;;;;;;;;25.11;57.70;99624.91;5118743;28;19930;-71
2021/08/23 11:30:46;;;;;;;;;;;;;;;25.07;58.50;99618.19;5118602;28;20369;-70
2021/08/23 11:33:28;;;;;;;;;;;;;;;25.22;58.29;99617.22;5118149;28;19923;-71
2021/08/23 11:35:57;;;;;;;;;;;;;;;25.76;55.55;99614.75;5118376;28;20377;-72
2021/08/23 11:38:31;;;;;;;;;;;;;;;26.08;55.63;99631.81;5118023;28;19924;-70
2021/08/23 11:41:00;;;;;;;;;;;;;;;25.99;54.71;99632.41;5118035;28;20297;-71
2021/08/23 11:43:29;;;;;;;;;;;;;;;26.15;53.45;99633.13;5117982;28;19974;-71
2021/08/23 11:45:59;;;;;;;;;;;;;;;26.31;53.38;99633.81;5118153;28;19992;-69
2021/08/23 11:48:28;;;;;;;;;;;;;;;26.43;54.13;99633.00;5117913;28;19924;-71
2021/08/23 11:50:57;;;;;;;;;;;;;;;26.76;54.32;99636.94;5117879;28;19930;-70
2021/08/23 11:53:27;;;;;;;;;;;;;;;26.16;55.39;99640.03;5117837;28;20294;-70
2021/08/23 11:56:05;;;;;;;;;;;;;;;25.33;56.37;99634.03;5117810;28;19924;-70
2021/08/23 11:58:37;;;;;;;;;;;;;;;24.67;56.65;99632.75;5116704;28;20110;-70
2021/08/23 12:01:07;;;;;;;;;;;;;;;24.33;57.55;99632.22;5133247;27;19924;-72
2021/08/23 12:03:37;;;;;;;;;;;;;;;24.16;58.48;99629.72;5117476;28;19923;-71
2021/08/23 12:06:08;;;;;;;;;;;;;;;23.98;59.33;99614.16;5117425;28;19924;-71
2021/08/23 12:08:38;;;;;;;;;;;;;;;23.92;59.69;99611.88;5117585;28;20338;-71
2021/08/23 12:11:10;;;;;;;;;;;;;;;23.78;60.12;99614.41;5117265;28;20350;-70
2021/08/23 12:13:40;;;;;;;;;;;;;;;23.68;60.32;99610.63;5117370;28;19958;-70
2021/08/23 12:16:10;;;;;;;;;;;;;;;23.61;61.43;99619.72;5117443;28;19924;-70
2021/08/23 12:18:40;;;;;;;;;;;;;;;23.52;62.37;99628.03;5117010;28;19928;-70
2021/08/23 12:21:13;;;;;;;;;;;;;;;23.48;62.76;99631.75;5118174;27;19923;-71
2021/08/23 12:23:53;;;;;;;;;;;;;;;23.33;62.95;99637.75;5115559;28;19928;-70
2021/08/23 12:26:27;;;;;;;;;;;;;;;23.18;63.58;99628.13;5117236;28;19924;-70
2021/08/23 12:28:56;;;;;;;;;;;;;;;23.29;63.50;99623.22;5116484;28;20353;-70
2021/08/23 12:31:25;;;;;;;;;;;;;;;23.34;62.81;99619.44;5116973;28;19927;-70
2021/08/23 12:33:54;;;;;;;;;;;;;;;23.31;62.95;99613.53;5116700;28;19927;-70
2021/08/23 12:36:23;;;;;;;;;;;;;;;23.37;63.44;99617.63;5117165;28;19994;-70
2021/08/23 12:38:52;;;;;;;;;;;;;;;23.37;62.58;99615.84;5116983;28;19958;-70
2021/08/23 12:41:22;;;;;;;;;;;;;;;23.36;61.87;99627.19;5116994;28;19934;-70
2021/08/23 12:43:54;;;;;;;;;;;;;;;23.36;61.58;99631.56;5116959;28;19927;-70
2021/08/23 12:46:25;;;;;;;;;;;;;;;23.23;62.60;99626.97;5116874;28;19977;-70
2021/08/23 12:48:54;;;;;;;;;;;;;;;23.18;62.70;99628.13;5117082;28;20376;-70
2021/08/23 12:51:22;;;;;;;;;;;;;;;23.20;62.73;99618.50;5116693;28;20293;-70
2021/08/23 12:53:51;;;;;;;;;;;;;;;23.10;63.51;99622.50;5116836;28;19923;-70
2021/08/23 12:56:20;;;;;;;;;;;;;;;23.08;63.45;99626.94;5116602;28;20335;-70
2021/08/23 12:58:49;;;;;;;;;;;;;;;23.08;63.40;99626.94;5116492;28;20419;-70
2021/08/23 13:01:20;;;;;;;;;;;;;;;23.06;63.74;99636.63;5116387;28;19928;-70
2021/08/23 13:03:49;;;;;;;;;;;;;;;22.93;63.17;99643.38;5116539;28;19923;-70
2021/08/23 13:06:18;;;;;;;;;;;;;;;22.88;62.87;99647.97;5116393;28;19959;-69
2021/08/23 13:08:47;;;;;;;;;;;;;;;22.78;62.93;99633.72;5116392;28;19951;-70
2021/08/23 13:11:16;;;;;;;;;;;;;;;22.86;62.65;99632.44;5116315;28;19928;-70
2021/08/23 13:13:45;;;;;;;;;;;;;;;22.79;62.96;99625.00;5115744;28;19958;-70
2021/08/23 13:16:14;;;;;;;;;;;;;;;22.77;62.94;99627.69;5116311;28;20377;-70
2021/08/23 13:18:45;;;;;;;;;;;;;;;22.79;63.17;99623.25;5116324;28;19923;-70
2021/08/23 13:21:14;;;;;;;;;;;;;;;22.80;63.04;99616.28;5116424;28;20422;-70
2021/08/23 13:23:43;;;;;;;;;;;;;;;22.81;62.46;99612.75;5116152;28;20022;-70
2021/08/23 13:26:12;;;;;;;;;;;;;;;22.74;62.76;99612.25;5115896;28;19931;-70
2021/08/23 13:28:40;;;;;;;;;;;;;;;22.73;62.02;99609.69;5116002;28;20027;-70
2021/08/23 13:31:09;;;;;;;;;;;;;;;22.68;62.18;99610.78;5115966;28;19923;-70
2021/08/23 13:33:38;;;;;;;;;;;;;;;22.67;62.90;99611.69;5115869;28;19924;-70
2021/08/23 13:36:09;;;;;;;;;;;;;;;22.62;63.45;99605.91;5115728;28;20355;-70
2021/08/23 13:38:38;;;;;;;;;;;;;;;22.54;63.15;99615.81;5115746;28;20007;-70
2021/08/23 13:41:06;;;;;;;;;;;;;;;22.57;63.63;99631.28;5115749;28;19928;-70
2021/08/23 13:43:35;;;;;;;;;;;;;;;22.67;63.22;99621.28;5115950;27;19930;-70
2021/08/23 13:46:04;;;;;;;;;;;;;;;22.71;62.35;99619.34;5114778;28;19924;-70
2021/08/23 13:48:33;;;;;;;;;;;;;;;22.77;62.14;99611.25;5115478;28;20377;-70
2021/08/23 13:51:02;;;;;;;;;;;;;;;22.75;62.13;99618.28;5115658;28;19924;-70
2021/08/23 13:53:32;;;;;;;;;;;;;;;22.72;62.18;99618.44;5115892;28;19930;-70
2021/08/23 13:56:00;;;;;;;;;;;;;;;22.80;62.10;99618.88;5115324;28;19924;-70
2021/08/23 13:58:30;;;;;;;;;;;;;;;22.78;61.89;99612.91;5115438;28;19924;-70
2021/08/23 14:00:59;;;;;;;;;;;;;;;22.74;62.07;99614.00;5115312;28;19938;-71
2021/08/23 14:03:31;;;;;;;;;;;;;;;22.73;62.39;99617.50;5115400;28;19924;-70
2021/08/23 14:06:00;;;;;;;;;;;;;;;22.74;62.40;99612.25;5115210;28;19923;-70
2021/08/23 14:08:34;;;;;;;;;;;;;;;22.68;62.26;99607.34;5114220;28;19963;-70
2021/08/23 14:11:07;;;;;;;;;;;;;;;22.64;62.23;99604.06;5115240;28;19947;-70
2021/08/23 14:13:38;;;;;;;;;;;;;;;22.68;63.15;99607.34;5115147;28;19924;-70
2021/08/23 14:16:11;;;;;;;;;;;;;;;22.63;63.86;99604.13;5115125;28;19932;-70
2021/08/23 14:18:43;;;;;;;;;;;;;;;22.55;63.83;99595.84;5115073;28;20403;-70
2021/08/23 14:21:15;;;;;;;;;;;;;;;22.58;64.18;99599.13;5115070;28;19924;-70
2021/08/23 14:23:48;;;;;;;;;;;;;;;22.51;64.44;99595.16;5114972;28;19959;-70
2021/08/23 14:26:17;;;;;;;;;;;;;;;22.47;64.57;99598.84;5115138;28;20351;-70
2021/08/23 14:28:49;;;;;;;;;;;;;;;22.52;65.21;99602.06;5114838;28;20014;-70
2021/08/23 14:31:21;;;;;;;;;;;;;;;22.49;65.15;99598.75;5114972;28;20014;-70
2021/08/23 14:33:54;;;;;;;;;;;;;;;22.57;65.07;99589.66;5115102;28;19923;-70
2021/08/23 14:36:25;;;;;;;;;;;;;;;22.63;64.55;99578.94;5115130;28;19931;-70
2021/08/23 14:38:56;;;;;;;;;;;;;;;22.62;64.53;99579.88;5114682;28;19947;-70
2021/08/23 14:41:27;;;;;;;;;;;;;;;22.65;64.25;99579.72;5115077;28;19931;-71
2021/08/23 14:44:00;;;;;;;;;;;;;;;22.67;63.77;99580.47;5114674;28;19969;-70
2021/08/23 14:46:32;;;;;;;;;;;;;;;22.70;64.26;99570.84;5114665;28;19924;-70
2021/08/23 14:49:06;;;;;;;;;;;;;;;22.72;64.34;99580.25;5114246;28;19970;-70
2021/08/23 14:51:39;;;;;;;;;;;;;;;22.60;64.32;99563.44;5115259;28;19958;-70
2021/08/23 14:54:12;;;;;;;;;;;;;;;22.60;64.99;99575.66;5114956;28;19970;-69
2021/08/23 14:56:41;;;;;;;;;;;;;;;22.55;65.48;99575.88;5114786;28;19970;-70
2021/08/23 14:59:12;;;;;;;;;;;;;;;22.54;66.23;99579.41;5114376;28;19928;-70
2021/08/23 15:01:45;;;;;;;;;;;;;;;22.51;65.76;99573.50;5114115;28;19924;-70
2021/08/23 15:04:17;;;;;;;;;;;;;;;22.44;66.15;99578.19;5114431;28;19924;-70
2021/08/23 15:06:49;;;;;;;;;;;;;;;22.37;66.01;99575.97;5114245;28;19928;-70
2021/08/23 15:09:19;;;;;;;;;;;;;;;22.35;66.09;99573.44;5114305;28;20369;-70
2021/08/23 15:11:55;;;;;;;;;;;;;;;22.36;66.52;99569.09;5114353;28;19930;-70
2021/08/23 15:14:23;;;;;;;;;;;;;;;22.31;66.84;99565.88;5114011;28;19923;-70